createdAt,value
2019-02-06T05:00:19.533Z,68.97
2019-02-06T05:02:42.041Z,70.80
2019-02-06T05:05:04.843Z,75.83
2019-02-06T05:07:27.337Z,77.87
2019-02-06T05:09:49.849Z,79.87
2019-02-06T05:12:12.356Z,73.03
2019-02-06T05:14:34.854Z,74.07
2019-02-06T06:01:11.438Z,71.50
2019-02-06T06:03:46.504Z,70.87
2019-02-06T06:06:21.611Z,66.47
2019-02-06T06:08:44.031Z,75.77
2019-02-06T06:11:06.541Z,65.47
2019-02-06T06:13:29.048Z,66.77
2019-02-06T07:00:16.951Z,57.23
2019-02-06T07:02:39.658Z,53.00
2019-02-06T07:05:02.086Z,59.63
2019-02-06T07:07:24.519Z,59.30
2019-02-06T07:09:47.010Z,49.87
2019-02-06T07:12:09.413Z,49.77
2019-02-06T07:14:31.932Z,54.80
2019-02-06T08:02:26.406Z,51.77
2019-02-06T08:04:48.935Z,48.70
2019-02-06T08:07:11.458Z,52.37
2019-02-06T08:09:33.962Z,51.80
2019-02-06T08:11:56.467Z,50.57
2019-02-06T08:14:18.878Z,51.40
2019-02-06T09:02:30.514Z,50.43
2019-02-06T09:04:55.821Z,52.90
2019-02-06T09:07:17.258Z,45.60
2019-02-06T09:09:39.811Z,46.10
2019-02-06T09:12:02.317Z,46.83
2019-02-06T09:14:24.810Z,45.07
2019-02-06T10:00:57.640Z,38.57
2019-02-06T10:03:20.353Z,38.43
2019-02-06T10:05:42.766Z,38.33
2019-02-06T10:08:05.497Z,42.63
2019-02-06T10:10:47.490Z,38.67
2019-02-06T10:13:22.906Z,38.43
2019-02-06T11:01:21.331Z,34.43
2019-02-06T11:03:43.869Z,37.28
2019-02-06T11:06:06.366Z,33.88
2019-02-06T11:08:28.796Z,34.83
2019-02-06T11:10:51.817Z,32.93
2019-02-06T11:13:14.214Z,32.05
2019-02-06T12:02:24.082Z,32.53
2019-02-06T12:04:46.507Z,30.68
2019-02-06T12:07:09.044Z,29.75
2019-02-06T12:09:31.857Z,32.50
2019-02-06T12:11:54.368Z,32.85
2019-02-06T12:14:16.988Z,30.50
2019-02-06T13:01:25.231Z,33.13
2019-02-06T13:04:00.347Z,35.43
2019-02-06T13:06:35.271Z,33.13
2019-02-06T13:09:11.255Z,35.73
2019-02-06T13:11:46.342Z,34.60
2019-02-06T13:14:21.340Z,37.70
2019-02-06T14:00:29.007Z,37.90
2019-02-06T14:02:51.519Z,37.87
2019-02-06T14:05:15.902Z,37.77
2019-02-06T14:07:38.774Z,43.33
2019-02-06T14:10:01.484Z,41.47
2019-02-06T14:12:24.329Z,40.33
2019-02-06T14:14:46.823Z,42.30
2019-02-06T15:01:19.046Z,60.23
2019-02-06T15:04:04.319Z,60.63
2019-02-06T15:06:59.904Z,60.57
2019-02-06T15:10:13.230Z,64.67
2019-02-06T15:12:48.642Z,59.13
2019-02-06T16:03:25.417Z,80.40
2019-02-06T16:06:23.486Z,79.20
2019-02-06T16:09:17.786Z,80.27
2019-02-06T16:12:36.986Z,82.97
2019-02-06T17:02:18.586Z,75.53
2019-02-06T17:05:30.978Z,76.73
2019-02-06T17:08:25.726Z,74.77
2019-02-06T17:11:00.567Z,73.43
2019-02-06T17:13:36.775Z,80.50
2019-02-06T18:17:35.578Z,74.63
2019-02-06T18:19:58.103Z,65.03
2019-02-06T18:22:22.547Z,66.87
2019-02-06T18:24:44.955Z,77.03
2019-02-06T18:27:08.879Z,72.13
2019-02-06T18:29:31.397Z,64.63
2019-02-06T19:01:26.547Z,63.27
2019-02-06T19:03:49.079Z,63.93
2019-02-06T19:06:11.761Z,55.07
2019-02-06T19:08:39.904Z,60.60
2019-02-06T19:11:01.442Z,62.67
2019-02-06T19:13:24.077Z,67.27
2019-02-06T20:00:17.266Z,60.00
2019-02-06T20:02:40.034Z,57.77
2019-02-06T20:05:02.890Z,57.57
2019-02-06T20:07:25.513Z,59.00
2019-02-06T20:10:00.493Z,56.73
2019-02-06T20:12:35.781Z,52.90
2019-02-06T21:00:16.028Z,53.80
2019-02-06T21:02:51.714Z,53.50
2019-02-06T21:05:14.370Z,57.73
2019-02-06T21:07:56.450Z,53.10
2019-02-06T21:10:31.195Z,61.00
2019-02-06T21:13:06.229Z,54.50
